Perseverance — WDD5594 — position and weather

sailwx.info

Track history (hours):
 
Tides and Currents Weather Stations Pressure Air Temp Water Temp Dewpoint Dewpoint Depression Visibility Wind Speed Wind Dir Waves Ship Positions

Perseverance

Owner: Cooper, Mark E, Toledo, OR. More information available from US FCC via Universal Licensing System and Coast Guard Vessel Documentation Center.

Last reported at 2018-Jan-10 06:40 UTC. Time now 2018-Jan-22 00:16 UTC.
Position N 45°51' W 125°28'.
Warning: this ship's position is 11 days out of date.

Type: Fishing. MMSI: 367618000.

Date/timePositionNaut miles runAvg speedWind from/ knotsBaromVisibWave heightAir tempDewpointWater temp
2018-Jan-10 06:40N 45°51' W 125°28'2 9.1
2018-Jan-10 06:26N 45°49' W 125°27'4 8.7
2018-Jan-10 05:58N 45°46' W 125°23'4 8.5
2018-Jan-10 05:30N 45°43' W 125°19'4 8.5
2018-Jan-10 05:00N 45°40' W 125°15'4 8.3
2018-Jan-10 04:29N 45°36' W 125°11'4 8.3
2018-Jan-10 04:00N 45°33' W 125°07'4 8.4
2018-Jan-10 03:30N 45°30' W 125°03'8 8.4
2018-Jan-10 02:33N 45°24' W 124°56'0 8.2
2018-Jan-10 02:30N 45°24' W 124°56'4 8.5
2018-Jan-10 01:59N 45°20' W 124°52'6 8.7
2018-Jan-10 01:21N 45°16' W 124°47'  
Track history (hours):
 
Tides and Currents Weather Stations Pressure Air Temp Water Temp Dewpoint Dewpoint Depression Visibility Wind Speed Wind Dir Waves Ship Positions

Perseverance

Owner: Cooper, Mark E, Toledo, OR. More information available from US FCC via Universal Licensing System and Coast Guard Vessel Documentation Center.

Last reported at 2018-Jan-10 06:40 UTC. Time now 2018-Jan-22 00:16 UTC.
Position N 45°51' W 125°28'.
Warning: this ship's position is 11 days out of date.

Type: Fishing. MMSI: 367618000.

Date/timePositionNaut miles runAvg speedWind from/ knotsBaromVisibWave heightAir tempDewpointWater temp
2018-Jan-10 06:40N 45°51' W 125°28'2 9.1
2018-Jan-10 06:26N 45°49' W 125°27'4 8.7
2018-Jan-10 05:58N 45°46' W 125°23'4 8.5
2018-Jan-10 05:30N 45°43' W 125°19'4 8.5
2018-Jan-10 05:00N 45°40' W 125°15'4 8.3
2018-Jan-10 04:29N 45°36' W 125°11'4 8.3
2018-Jan-10 04:00N 45°33' W 125°07'4 8.4
2018-Jan-10 03:30N 45°30' W 125°03'8 8.4
2018-Jan-10 02:33N 45°24' W 124°56'0 8.2
2018-Jan-10 02:30N 45°24' W 124°56'4 8.5
2018-Jan-10 01:59N 45°20' W 124°52'6 8.7
2018-Jan-10 01:21N 45°16' W 124°47'  

Dump ship's entire track history